createdAt,value
2022-11-10T00:01:12.480Z,9.05
2022-11-10T00:03:40.285Z,8.48
2022-11-10T00:06:09.185Z,8.88
2022-11-10T00:08:36.560Z,7.55
2022-11-10T00:11:07.824Z,9.10
2022-11-10T00:13:56.919Z,8.07
2022-11-10T00:16:42.530Z,9.48
2022-11-10T00:19:09.848Z,10.10
2022-11-10T00:21:37.876Z,7.47
2022-11-10T00:24:05.449Z,7.25
2022-11-10T00:26:32.536Z,9.07
2022-11-10T00:28:59.383Z,9.15
2022-11-10T00:31:28.524Z,7.43
2022-11-10T00:33:55.796Z,8.73
2022-11-10T00:36:22.740Z,8.52
2022-11-10T00:38:53.072Z,6.50
2022-11-10T00:41:20.669Z,8.95
2022-11-10T00:43:48.214Z,9.43
2022-11-10T00:46:15.692Z,6.95
2022-11-10T00:48:42.584Z,8.02
2022-11-10T00:51:19.818Z,8.02
2022-11-10T00:53:48.438Z,9.15
2022-11-10T00:56:15.475Z,7.18
2022-11-10T00:58:42.802Z,7.43
2022-11-10T01:01:11.360Z,9.13
2022-11-10T01:03:38.919Z,7.47
2022-11-10T01:06:07.075Z,6.72
2022-11-10T01:08:34.450Z,8.18
2022-11-10T01:11:03.022Z,7.60
2022-11-10T01:13:30.573Z,9.02
2022-11-10T01:15:57.551Z,7.60
2022-11-10T01:18:24.391Z,7.78
2022-11-10T01:20:52.528Z,7.03
2022-11-10T01:23:19.561Z,8.00
2022-11-10T01:25:46.468Z,7.57
2022-11-10T01:28:13.207Z,8.23
2022-11-10T01:30:39.999Z,7.43
2022-11-10T01:33:06.798Z,7.65
2022-11-10T01:35:36.400Z,8.65
2022-11-10T01:38:03.323Z,7.03
2022-11-10T01:40:30.101Z,11.75
2022-11-10T01:42:58.456Z,7.93
2022-11-10T01:45:25.196Z,6.50
2022-11-10T01:48:02.598Z,8.68
2022-11-10T01:50:34.393Z,6.72
2022-11-10T01:53:04.746Z,11.13
2022-11-10T01:55:34.468Z,7.10
2022-11-10T01:58:01.522Z,6.40
2022-11-10T02:00:28.387Z,7.88
2022-11-10T02:03:25.811Z,7.85
2022-11-10T02:05:52.664Z,7.20
2022-11-10T02:08:21.752Z,9.63
2022-11-10T02:10:48.539Z,7.32
2022-11-10T02:13:15.284Z,8.57
2022-11-10T02:15:42.530Z,8.32
2022-11-10T02:18:09.442Z,7.65
2022-11-10T02:20:36.199Z,7.60
2022-11-10T02:23:35.175Z,7.82
2022-11-10T02:26:07.123Z,9.00
2022-11-10T02:28:35.471Z,7.40
2022-11-10T02:31:02.815Z,6.40
2022-11-10T02:33:29.707Z,7.70
2022-11-10T02:35:56.556Z,7.15
2022-11-10T02:38:23.436Z,8.10
2022-11-10T02:40:50.595Z,9.23
2022-11-10T02:43:20.493Z,8.43
2022-11-10T02:45:47.503Z,9.52
2022-11-10T02:48:15.870Z,10.90
2022-11-10T02:50:43.283Z,7.55
2022-11-10T02:53:10.232Z,7.35
2022-11-10T02:55:37.141Z,9.40
2022-11-10T02:58:03.925Z,9.45
2022-11-10T03:00:30.759Z,6.13
2022-11-10T03:02:59.436Z,7.78
2022-11-10T03:05:26.229Z,9.10
2022-11-10T03:07:57.141Z,8.00
2022-11-10T03:10:24.336Z,11.05
2022-11-10T03:12:55.425Z,7.82
2022-11-10T03:15:23.028Z,7.82
2022-11-10T03:17:50.379Z,8.70
2022-11-10T03:20:17.658Z,6.90
2022-11-10T03:22:44.737Z,8.82
2022-11-10T03:25:12.140Z,7.43
2022-11-10T03:27:39.639Z,6.50
2022-11-10T03:30:07.404Z,8.40
2022-11-10T03:32:34.198Z,7.07
2022-11-10T03:35:01.012Z,7.88
2022-11-10T03:37:27.783Z,6.43
2022-11-10T03:39:54.529Z,7.75
2022-11-10T03:42:21.424Z,10.45
2022-11-10T03:44:48.523Z,9.15
2022-11-10T03:47:15.315Z,9.00
2022-11-10T03:49:42.510Z,7.60
2022-11-10T03:52:09.281Z,9.25
2022-11-10T03:54:36.009Z,7.40
2022-11-10T03:57:02.785Z,9.50
2022-11-10T03:59:29.544Z,10.18
2022-11-10T04:01:56.486Z,8.52
2022-11-10T04:04:42.056Z,10.13
2022-11-10T04:07:31.480Z,7.93
2022-11-10T04:09:58.396Z,9.82
2022-11-10T04:12:43.946Z,9.57
2022-11-10T04:15:32.412Z,10.02
2022-11-10T04:18:19.191Z,8.10
2022-11-10T04:20:46.397Z,10.25
2022-11-10T04:23:28.479Z,9.60
2022-11-10T04:26:16.622Z,10.23
2022-11-10T04:28:44.915Z,10.38
2022-11-10T04:31:12.813Z,10.52
2022-11-10T04:33:41.323Z,8.77
2022-11-10T04:36:09.896Z,9.43
2022-11-10T04:38:36.962Z,12.10
2022-11-10T04:41:04.227Z,10.70
2022-11-10T04:43:31.051Z,10.13
2022-11-10T04:45:58.198Z,9.07
2022-11-10T04:48:26.314Z,8.45
2022-11-10T04:50:53.333Z,12.00
2022-11-10T04:53:20.957Z,10.40
2022-11-10T04:55:49.247Z,10.50
2022-11-10T04:58:16.058Z,10.55
2022-11-10T05:00:43.284Z,11.82
2022-11-10T05:03:11.963Z,8.93
2022-11-10T05:05:38.998Z,9.88
2022-11-10T05:08:06.532Z,7.95
2022-11-10T05:10:35.114Z,8.63
2022-11-10T05:13:02.059Z,9.00
2022-11-10T05:15:29.133Z,9.95
2022-11-10T05:17:55.948Z,7.93
2022-11-10T05:20:24.284Z,9.68
2022-11-10T05:23:11.348Z,8.45
2022-11-10T05:25:41.090Z,7.93
2022-11-10T05:28:09.815Z,9.32
2022-11-10T05:30:36.985Z,9.00
2022-11-10T05:33:04.657Z,9.73
2022-11-10T05:35:31.942Z,9.27
2022-11-10T05:37:59.789Z,8.20
2022-11-10T05:40:27.295Z,8.18
2022-11-10T05:42:54.347Z,9.40
2022-11-10T05:45:26.665Z,8.02
2022-11-10T05:47:53.901Z,9.98
2022-11-10T05:50:22.355Z,9.73
2022-11-10T05:52:52.460Z,8.95
2022-11-10T05:55:24.929Z,9.25
2022-11-10T05:57:53.912Z,8.15
2022-11-10T06:00:23.594Z,8.80
2022-11-10T06:03:02.268Z,10.60
2022-11-10T06:05:31.740Z,10.40
2022-11-10T06:07:59.505Z,10.27
2022-11-10T06:10:26.702Z,10.45
2022-11-10T06:12:55.135Z,8.75
2022-11-10T06:15:22.496Z,9.23
2022-11-10T06:17:49.636Z,8.45
2022-11-10T06:20:17.644Z,9.50
2022-11-10T06:22:58.672Z,9.07
2022-11-10T06:25:25.846Z,10.80
2022-11-10T06:27:52.752Z,10.10
2022-11-10T06:30:19.761Z,9.02
2022-11-10T06:32:46.596Z,9.40
2022-11-10T06:35:13.332Z,10.10
2022-11-10T06:37:40.189Z,8.48
2022-11-10T06:40:08.962Z,11.35
2022-11-10T06:42:35.910Z,9.82
2022-11-10T06:45:03.324Z,10.63
2022-11-10T06:47:30.109Z,9.07
2022-11-10T06:49:56.866Z,11.73
2022-11-10T06:52:24.029Z,10.23
2022-11-10T06:54:50.822Z,11.10
2022-11-10T06:57:17.569Z,11.60
2022-11-10T06:59:45.401Z,9.68
2022-11-10T07:02:16.208Z,10.48
2022-11-10T07:04:42.966Z,10.48
2022-11-10T07:07:11.210Z,14.35
2022-11-10T07:09:38.508Z,11.38
2022-11-10T07:12:05.762Z,13.02
2022-11-10T07:14:32.630Z,12.88
2022-11-10T07:16:59.656Z,11.82
2022-11-10T07:19:26.611Z,12.75
2022-11-10T07:21:53.459Z,16.52
2022-11-10T07:24:20.196Z,12.25
2022-11-10T07:26:46.927Z,13.90
2022-11-10T07:29:13.690Z,14.35
2022-11-10T07:31:40.450Z,15.27
2022-11-10T07:34:07.211Z,14.85
2022-11-10T07:36:33.991Z,12.30
2022-11-10T07:39:00.785Z,10.80
2022-11-10T07:41:27.540Z,9.20
2022-11-10T07:43:54.308Z,10.55
2022-11-10T07:46:21.085Z,10.77
2022-11-10T07:48:47.938Z,14.70
2022-11-10T07:51:14.978Z,14.63
2022-11-10T07:53:42.008Z,11.35
2022-11-10T07:56:08.806Z,13.15
2022-11-10T07:58:35.713Z,12.15
2022-11-10T08:01:02.720Z,11.57
2022-11-10T08:03:29.517Z,10.73
2022-11-10T08:05:56.634Z,12.77
2022-11-10T08:08:23.454Z,14.75
2022-11-10T08:10:50.287Z,11.43
2022-11-10T08:13:17.140Z,11.38
2022-11-10T08:15:43.938Z,12.00
2022-11-10T08:18:22.337Z,12.65
2022-11-10T08:20:49.511Z,14.70
2022-11-10T08:23:17.791Z,13.15
2022-11-10T08:25:46.761Z,13.93
2022-11-10T08:28:16.667Z,13.82
2022-11-10T08:30:45.426Z,12.48
2022-11-10T08:33:13.906Z,13.07
2022-11-10T08:35:43.750Z,12.90
2022-11-10T08:38:13.672Z,13.73
2022-11-10T08:40:41.205Z,14.80
2022-11-10T08:43:09.235Z,13.07
2022-11-10T08:45:37.379Z,14.90
2022-11-10T08:48:06.962Z,14.73
2022-11-10T08:50:34.117Z,12.40
2022-11-10T08:53:02.584Z,11.43
2022-11-10T08:55:29.666Z,11.95
2022-11-10T08:58:01.303Z,12.35
2022-11-10T09:00:29.940Z,13.30
2022-11-10T09:03:03.312Z,11.93
2022-11-10T09:05:30.567Z,12.68
2022-11-10T09:07:57.325Z,10.70
2022-11-10T09:10:24.270Z,13.05
2022-11-10T09:12:51.433Z,13.07
2022-11-10T09:15:19.832Z,13.77
2022-11-10T09:17:46.775Z,11.48
2022-11-10T09:20:13.741Z,11.43
2022-11-10T09:22:40.603Z,10.07
2022-11-10T09:25:07.691Z,11.80
2022-11-10T09:27:38.628Z,10.77
2022-11-10T09:30:06.917Z,13.32
2022-11-10T09:32:33.804Z,12.38
2022-11-10T09:35:01.238Z,10.20
2022-11-10T09:37:28.308Z,10.90
2022-11-10T09:39:55.916Z,11.77
2022-11-10T09:42:37.050Z,11.07
2022-11-10T09:52:41.295Z,10.18
2022-11-10T09:55:29.730Z,11.45
2022-11-10T09:57:58.778Z,11.85
2022-11-10T10:00:25.626Z,10.73
2022-11-10T10:03:02.176Z,11.07
2022-11-10T10:06:00.906Z,11.57
2022-11-10T10:08:34.941Z,13.93
2022-11-10T10:11:23.815Z,13.13
2022-11-10T10:14:24.441Z,13.27
2022-11-10T10:17:14.220Z,20.98
2022-11-10T10:20:04.992Z,16.40
2022-11-10T10:23:05.213Z,17.35
2022-11-10T10:25:32.891Z,18.60
2022-11-10T10:28:34.779Z,17.30
2022-11-10T10:31:51.302Z,16.77
2022-11-10T10:34:39.512Z,17.48
2022-11-10T10:37:24.444Z,17.45
2022-11-10T10:39:55.316Z,19.90
2022-11-10T10:42:36.148Z,19.60
2022-11-10T10:45:11.917Z,18.17
2022-11-10T10:47:40.022Z,19.20
2022-11-10T10:50:33.771Z,16.33
2022-11-10T10:53:20.080Z,16.55
2022-11-10T10:56:14.091Z,18.05
2022-11-10T10:58:55.659Z,17.95
2022-11-10T11:01:37.515Z,20.20
2022-11-10T11:04:44.197Z,20.13
2022-11-10T11:07:26.192Z,17.83
2022-11-10T11:09:52.968Z,19.30
2022-11-10T11:12:22.987Z,18.02
2022-11-10T11:14:49.775Z,18.38
2022-11-10T11:17:22.412Z,16.33
2022-11-10T11:19:59.867Z,16.50
2022-11-10T11:22:55.625Z,17.38
2022-11-10T11:25:39.809Z,20.48
2022-11-10T11:28:39.513Z,16.05
2022-11-10T11:31:28.205Z,15.65
2022-11-10T11:34:25.261Z,18.98
2022-11-10T11:37:19.019Z,16.40
2022-11-10T11:39:58.279Z,16.60
2022-11-10T11:43:01.070Z,15.15
2022-11-10T11:45:52.433Z,17.52
2022-11-10T11:48:56.747Z,17.38
2022-11-10T11:52:04.016Z,13.93
2022-11-10T11:54:55.524Z,12.77
2022-11-10T11:57:46.054Z,13.57
2022-11-10T12:01:02.040Z,13.63
2022-11-10T12:06:41.594Z,11.27
2022-11-10T12:09:25.273Z,9.63
2022-11-10T12:11:54.971Z,8.38
2022-11-10T12:14:38.023Z,10.25
2022-11-10T12:17:22.606Z,11.80
2022-11-10T12:20:15.347Z,9.68
2022-11-10T12:23:19.808Z,9.30
2022-11-10T12:26:09.060Z,10.45
2022-11-10T12:28:51.636Z,8.95
2022-11-10T12:31:23.429Z,10.90
2022-11-10T12:34:29.118Z,9.20
2022-11-10T12:36:58.256Z,9.27
2022-11-10T12:39:38.742Z,10.02
2022-11-10T12:42:12.612Z,8.07
2022-11-10T12:47:11.386Z,8.75
2022-11-10T12:49:45.052Z,9.65
2022-11-10T12:52:19.641Z,9.13
2022-11-10T12:54:47.390Z,9.15
2022-11-10T12:57:20.155Z,8.93
2022-11-10T13:00:05.228Z,8.60
2022-11-10T13:02:42.451Z,8.60
2022-11-10T13:05:26.843Z,9.48
2022-11-10T13:08:06.381Z,11.25
2022-11-10T13:10:33.253Z,9.32
2022-11-10T13:13:04.811Z,9.20
2022-11-10T13:15:38.010Z,8.65
2022-11-10T13:18:08.656Z,11.07
2022-11-10T13:20:50.551Z,8.32
2022-11-10T13:23:26.567Z,10.38
2022-11-10T13:25:58.350Z,7.75
2022-11-10T13:28:49.211Z,8.75
2022-11-10T13:31:28.344Z,9.15
2022-11-10T13:34:27.033Z,12.20
2022-11-10T13:36:53.905Z,12.65
2022-11-10T13:39:20.685Z,15.02
2022-11-10T13:41:57.865Z,15.60
2022-11-10T13:44:39.887Z,12.32
2022-11-10T13:47:09.750Z,11.90
2022-11-10T13:50:01.559Z,10.23
2022-11-10T13:52:56.905Z,8.85
2022-11-10T13:55:50.375Z,10.68
2022-11-10T13:58:29.624Z,8.77
2022-11-10T14:01:17.140Z,8.52
2022-11-10T14:03:49.908Z,7.65
2022-11-10T14:06:53.021Z,7.55
2022-11-10T14:09:41.526Z,7.32
2022-11-10T14:12:46.385Z,5.25
2022-11-10T14:15:40.275Z,6.60
2022-11-10T14:18:25.500Z,5.57
2022-11-10T14:21:01.080Z,6.45
2022-11-10T14:23:48.054Z,5.72
2022-11-10T14:26:52.042Z,6.68
2022-11-10T14:29:38.568Z,8.05
2022-11-10T14:32:25.055Z,4.47
2022-11-10T14:35:17.326Z,4.07
2022-11-10T14:37:52.188Z,8.68
2022-11-10T14:40:20.666Z,7.28
2022-11-10T14:43:01.297Z,6.88
2022-11-10T14:45:28.787Z,4.85
2022-11-10T14:48:17.551Z,6.93
2022-11-10T14:50:44.501Z,5.72
2022-11-10T14:53:23.193Z,9.35
2022-11-10T14:55:54.662Z,5.55
2022-11-10T14:58:31.196Z,5.30
2022-11-10T15:00:58.475Z,6.15
2022-11-10T15:03:54.953Z,5.65
2022-11-10T15:06:25.300Z,6.05
2022-11-10T15:08:52.116Z,5.55
2022-11-10T15:11:52.301Z,7.10
2022-11-10T15:14:40.012Z,6.00
2022-11-10T15:17:18.110Z,6.65
2022-11-10T15:19:55.127Z,5.35
2022-11-10T15:22:33.969Z,5.55
2022-11-10T15:25:10.221Z,7.88
2022-11-10T15:27:37.669Z,8.60
2022-11-10T15:30:21.626Z,7.82
2022-11-10T15:32:49.299Z,6.82
2022-11-10T15:35:24.951Z,7.47
2022-11-10T15:38:03.577Z,9.65
2022-11-10T15:40:42.491Z,7.10
2022-11-10T15:43:22.220Z,9.40
2022-11-10T15:45:55.320Z,10.18
2022-11-10T15:48:23.339Z,9.10
2022-11-10T15:50:53.483Z,8.05
2022-11-10T15:53:30.720Z,5.93
2022-11-10T15:55:57.467Z,7.20
2022-11-10T15:58:24.885Z,6.40
2022-11-10T16:00:51.835Z,5.88
2022-11-10T16:03:20.174Z,6.22
2022-11-10T16:05:48.432Z,5.00
2022-11-10T16:08:17.863Z,5.15
2022-11-10T16:10:56.068Z,6.88
2022-11-10T16:13:26.119Z,5.25
2022-11-10T16:15:53.616Z,5.82
2022-11-10T16:18:23.336Z,7.05
2022-11-10T16:20:51.690Z,7.03
2022-11-10T16:23:19.207Z,6.70
2022-11-10T16:25:48.844Z,6.57
2022-11-10T16:28:20.537Z,7.03
2022-11-10T16:30:47.603Z,7.03
2022-11-10T16:33:16.343Z,9.02
2022-11-10T16:35:43.862Z,9.02
2022-11-10T16:38:26.034Z,8.98
2022-11-10T16:41:01.499Z,8.57
2022-11-10T16:43:30.417Z,8.18
2022-11-10T16:46:00.569Z,10.60
2022-11-10T16:48:35.251Z,10.85
2022-11-10T16:51:02.566Z,11.18
2022-11-10T16:53:31.579Z,11.70
2022-11-10T16:55:58.995Z,12.13
2022-11-10T16:58:28.143Z,14.98
2022-11-10T17:00:59.202Z,14.77
2022-11-10T17:03:35.100Z,16.52
2022-11-10T17:06:02.343Z,14.95
2022-11-10T17:08:31.822Z,16.02
2022-11-10T17:10:58.998Z,15.38
2022-11-10T17:13:26.259Z,13.57
2022-11-10T17:15:58.152Z,15.35
2022-11-10T17:18:25.270Z,13.93
2022-11-10T17:20:53.137Z,14.55
2022-11-10T17:23:23.443Z,15.40
2022-11-10T17:25:51.238Z,15.02
2022-11-10T17:28:18.951Z,12.43
2022-11-10T17:30:46.028Z,14.00
2022-11-10T17:33:12.951Z,14.75
2022-11-10T17:35:46.812Z,13.00
2022-11-10T17:40:44.201Z,14.50
2022-11-10T17:43:12.418Z,12.27
2022-11-10T17:45:40.048Z,12.20
2022-11-10T17:48:07.790Z,12.35
2022-11-10T17:50:36.119Z,12.32
2022-11-10T17:53:11.027Z,11.70
2022-11-10T17:55:37.799Z,13.57
2022-11-10T17:58:04.559Z,13.50
2022-11-10T18:00:31.424Z,12.43
2022-11-10T18:02:58.254Z,12.07
2022-11-10T18:05:24.976Z,12.55
2022-11-10T18:07:52.099Z,11.75
2022-11-10T18:10:19.061Z,12.32
2022-11-10T18:12:45.820Z,13.32
2022-11-10T18:15:14.690Z,11.43
2022-11-10T18:17:42.234Z,11.63
2022-11-10T18:20:10.604Z,9.55
2022-11-10T18:22:37.911Z,12.65
2022-11-10T18:25:05.916Z,13.98
2022-11-10T18:27:32.648Z,11.95
2022-11-10T18:29:59.469Z,12.15
2022-11-10T18:32:26.292Z,13.32
2022-11-10T18:34:53.176Z,10.52
2022-11-10T18:37:20.951Z,10.77
2022-11-10T18:39:48.529Z,10.23
2022-11-10T18:42:15.608Z,10.32
2022-11-10T18:44:42.464Z,9.40
2022-11-10T18:47:11.882Z,11.73
2022-11-10T18:49:38.684Z,10.77
2022-11-10T18:52:05.428Z,11.20
2022-11-10T18:54:32.254Z,9.52
2022-11-10T18:56:58.983Z,11.65
2022-11-10T18:59:25.802Z,11.90
2022-11-10T19:01:52.688Z,9.13
2022-11-10T19:04:19.608Z,9.75
2022-11-10T19:06:46.458Z,10.73
2022-11-10T19:09:13.400Z,12.27
2022-11-10T19:11:40.208Z,11.45
2022-11-10T19:14:06.991Z,9.93
2022-11-10T19:16:33.853Z,10.55
2022-11-10T19:19:00.844Z,13.48
2022-11-10T19:21:27.802Z,9.45
2022-11-10T19:23:58.637Z,10.43
2022-11-10T19:26:27.011Z,9.95
2022-11-10T19:28:55.616Z,9.02
2022-11-10T19:31:23.918Z,11.95
2022-11-10T19:33:53.797Z,9.88
2022-11-10T19:36:23.044Z,8.65
2022-11-10T19:38:49.975Z,8.30
2022-11-10T19:41:20.829Z,8.10
2022-11-10T19:43:47.917Z,9.82
2022-11-10T19:46:23.455Z,7.38
2022-11-10T19:48:50.279Z,7.68
2022-11-10T19:51:18.872Z,7.38
2022-11-10T19:53:48.439Z,8.30
2022-11-10T19:56:20.479Z,7.93
2022-11-10T19:58:48.349Z,7.22
2022-11-10T20:01:16.752Z,7.00
2022-11-10T20:03:44.280Z,6.28
2022-11-10T20:06:17.078Z,8.02
2022-11-10T20:08:47.007Z,6.18
2022-11-10T20:11:16.846Z,6.50
2022-11-10T20:13:43.918Z,6.88
2022-11-10T20:16:12.700Z,6.72
2022-11-10T20:18:40.736Z,6.32
2022-11-10T20:21:15.968Z,6.32
2022-11-10T20:23:43.191Z,6.40
2022-11-10T20:26:15.604Z,6.63
2022-11-10T20:28:43.325Z,7.95
2022-11-10T20:31:20.290Z,6.88
2022-11-10T20:33:49.309Z,6.68
2022-11-10T20:36:21.920Z,7.50
2022-11-10T20:38:49.789Z,7.05
2022-11-10T20:41:18.880Z,6.32
2022-11-10T20:43:45.789Z,6.32
2022-11-10T20:46:40.138Z,6.63
2022-11-10T20:49:04.983Z,6.00
2022-11-10T20:51:31.854Z,7.43
2022-11-10T20:54:00.977Z,6.00
2022-11-10T20:56:30.027Z,7.45
2022-11-10T20:58:57.638Z,4.97
2022-11-10T21:01:24.979Z,5.72
2022-11-10T21:03:51.999Z,5.30
2022-11-10T21:06:18.950Z,6.28
2022-11-10T21:08:45.940Z,5.60
2022-11-10T21:11:32.909Z,7.72
2022-11-10T21:14:01.526Z,7.03
2022-11-10T21:16:29.004Z,7.82
2022-11-10T21:18:56.622Z,8.38
2022-11-10T21:21:34.009Z,10.02
2022-11-10T21:24:05.389Z,9.02
2022-11-10T21:26:34.300Z,9.55
2022-11-10T21:29:02.127Z,6.90
2022-11-10T21:31:30.120Z,6.15
2022-11-10T21:33:58.386Z,5.05
2022-11-10T21:36:29.627Z,5.00
2022-11-10T21:38:59.340Z,5.22
2022-11-10T21:41:26.779Z,5.28
2022-11-10T21:43:53.529Z,5.00
2022-11-10T21:46:20.989Z,6.28
2022-11-10T21:48:47.944Z,4.80
2022-11-10T21:51:14.692Z,5.15
2022-11-10T21:53:42.524Z,5.43
2022-11-10T21:56:10.667Z,5.45
2022-11-10T21:58:37.649Z,5.63
2022-11-10T22:01:13.132Z,5.38
2022-11-10T22:03:40.431Z,6.20
2022-11-10T22:06:10.047Z,5.68
2022-11-10T22:08:37.820Z,5.82
2022-11-10T22:11:23.837Z,4.93
2022-11-10T22:14:08.962Z,4.90
2022-11-10T22:17:07.775Z,5.32
2022-11-10T22:19:36.185Z,5.90
2022-11-10T22:22:04.217Z,7.47
2022-11-10T22:24:31.648Z,6.95
2022-11-10T22:27:00.775Z,6.47
2022-11-10T22:29:31.810Z,6.10
2022-11-10T22:32:00.011Z,4.80
2022-11-10T22:34:26.779Z,4.63
2022-11-10T22:36:54.760Z,5.45
2022-11-10T22:39:21.792Z,5.47
2022-11-10T22:42:07.712Z,5.65
2022-11-10T22:44:34.439Z,4.88
2022-11-10T22:47:01.265Z,4.82
2022-11-10T22:49:28.074Z,7.80
2022-11-10T22:51:55.469Z,4.60
2022-11-10T22:54:23.447Z,4.07
2022-11-10T22:56:51.240Z,4.78
2022-11-10T22:59:19.200Z,6.80
2022-11-10T23:01:46.386Z,4.43
2022-11-10T23:04:13.841Z,4.13
2022-11-10T23:06:40.693Z,3.53
2022-11-10T23:09:07.609Z,4.05
2022-11-10T23:11:34.490Z,4.18
2022-11-10T23:14:01.340Z,3.80
2022-11-10T23:16:31.758Z,4.22
2022-11-10T23:18:59.107Z,5.28
2022-11-10T23:21:28.839Z,4.05
2022-11-10T23:23:56.065Z,4.88
2022-11-10T23:26:30.188Z,3.55
2022-11-10T23:28:57.087Z,3.47
2022-11-10T23:31:26.620Z,3.90
2022-11-10T23:33:55.663Z,3.95
2022-11-10T23:36:24.374Z,3.38
2022-11-10T23:38:51.716Z,3.95
2022-11-10T23:41:21.145Z,3.88
2022-11-10T23:43:47.992Z,4.18
2022-11-10T23:46:15.081Z,3.00
2022-11-10T23:48:42.267Z,3.40
2022-11-10T23:51:11.691Z,3.40
2022-11-10T23:53:38.836Z,3.63
2022-11-10T23:56:09.098Z,3.90
2022-11-10T23:58:35.896Z,3.45
